sensor_id;sensor_type;location;lat;lon;timestamp;pressure;altitude;pressure_sealevel;temperature;humidity
41706;BME280;27385;51.096;17.190;2023-07-13T00:00:31;99859.20;;;20.38;78.16
41706;BME280;27385;51.096;17.190;2023-07-13T00:03:22;99865.63;;;20.33;78.32
41706;BME280;27385;51.096;17.190;2023-07-13T00:06:01;99865.07;;;20.29;78.54
41706;BME280;27385;51.096;17.190;2023-07-13T00:08:33;99863.73;;;20.24;78.63
41706;BME280;27385;51.096;17.190;2023-07-13T00:11:04;99852.36;;;20.17;78.71
41706;BME280;27385;51.096;17.190;2023-07-13T00:13:36;99851.02;;;20.09;78.84
41706;BME280;27385;51.096;17.190;2023-07-13T00:16:09;99856.63;;;20.03;78.75
41706;BME280;27385;51.096;17.190;2023-07-13T00:18:41;99857.11;;;19.96;78.68
41706;BME280;27385;51.096;17.190;2023-07-13T00:21:12;99855.70;;;19.93;78.79
41706;BME280;27385;51.096;17.190;2023-07-13T00:23:43;99851.63;;;19.91;78.79
41706;BME280;27385;51.096;17.190;2023-07-13T00:26:14;99851.02;;;19.91;78.95
41706;BME280;27385;51.096;17.190;2023-07-13T00:28:46;99859.79;;;19.88;79.23
41706;BME280;27385;51.096;17.190;2023-07-13T00:31:17;99860.77;;;19.85;79.29
41706;BME280;27385;51.096;17.190;2023-07-13T00:33:48;99864.42;;;19.84;79.27
41706;BME280;27385;51.096;17.190;2023-07-13T00:36:21;99859.98;;;19.85;79.48
41706;BME280;27385;51.096;17.190;2023-07-13T00:38:51;99859.41;;;19.85;79.75
41706;BME280;27385;51.096;17.190;2023-07-13T00:41:22;99864.81;;;19.85;79.78
41706;BME280;27385;51.096;17.190;2023-07-13T00:43:53;99868.40;;;19.84;80.07
41706;BME280;27385;51.096;17.190;2023-07-13T00:46:27;99876.42;;;19.82;80.38
41706;BME280;27385;51.096;17.190;2023-07-13T00:49:01;99880.50;;;19.79;80.45
41706;BME280;27385;51.096;17.190;2023-07-13T00:51:37;99878.78;;;19.76;80.48
41706;BME280;27385;51.096;17.190;2023-07-13T00:54:12;99878.84;;;19.74;80.64
41706;BME280;27385;51.096;17.190;2023-07-13T00:56:45;99880.66;;;19.75;80.91
41706;BME280;27385;51.096;17.190;2023-07-13T00:59:18;99871.20;;;19.74;81.13
41706;BME280;27385;51.096;17.190;2023-07-13T01:01:50;99873.27;;;19.75;81.24
41706;BME280;27385;51.096;17.190;2023-07-13T01:04:23;99874.95;;;19.75;81.43
41706;BME280;27385;51.096;17.190;2023-07-13T01:06:54;99887.94;;;19.74;81.55
41706;BME280;27385;51.096;17.190;2023-07-13T01:09:27;99897.90;;;19.73;81.78
41706;BME280;27385;51.096;17.190;2023-07-13T01:11:58;99914.09;;;19.73;82.05
41706;BME280;27385;51.096;17.190;2023-07-13T01:14:30;99933.70;;;19.71;82.61
41706;BME280;27385;51.096;17.190;2023-07-13T01:17:01;99941.23;;;19.65;82.84
41706;BME280;27385;51.096;17.190;2023-07-13T01:19:36;99927.30;;;19.62;82.91
41706;BME280;27385;51.096;17.190;2023-07-13T01:22:10;99899.35;;;19.64;82.99
41706;BME280;27385;51.096;17.190;2023-07-13T01:24:42;99867.88;;;19.69;82.98
41706;BME280;27385;51.096;17.190;2023-07-13T01:27:15;99859.75;;;19.72;83.73
41706;BME280;27385;51.096;17.190;2023-07-13T01:29:46;99866.50;;;19.71;83.62
41706;BME280;27385;51.096;17.190;2023-07-13T01:32:19;99875.23;;;19.72;84.22
41706;BME280;27385;51.096;17.190;2023-07-13T01:34:53;99875.73;;;19.69;84.44
41706;BME280;27385;51.096;17.190;2023-07-13T01:37:25;99879.34;;;19.66;84.42
41706;BME280;27385;51.096;17.190;2023-07-13T01:39:56;99874.21;;;19.62;84.49
41706;BME280;27385;51.096;17.190;2023-07-13T01:42:27;99872.48;;;19.60;84.47
41706;BME280;27385;51.096;17.190;2023-07-13T01:45:13;99865.70;;;19.59;84.28
41706;BME280;27385;51.096;17.190;2023-07-13T01:47:45;99856.02;;;19.57;84.60
41706;BME280;27385;51.096;17.190;2023-07-13T01:50:16;99846.98;;;19.54;84.85
41706;BME280;27385;51.096;17.190;2023-07-13T01:52:47;99844.92;;;19.52;85.51
41706;BME280;27385;51.096;17.190;2023-07-13T01:55:18;99838.20;;;19.44;85.47
41706;BME280;27385;51.096;17.190;2023-07-13T01:57:49;99833.83;;;19.40;85.28
41706;BME280;27385;51.096;17.190;2023-07-13T02:00:20;99835.98;;;19.36;85.46
41706;BME280;27385;51.096;17.190;2023-07-13T02:02:51;99827.80;;;19.35;85.30
41706;BME280;27385;51.096;17.190;2023-07-13T02:05:22;99825.59;;;19.36;85.23
41706;BME280;27385;51.096;17.190;2023-07-13T02:07:53;99833.67;;;19.37;85.31
41706;BME280;27385;51.096;17.190;2023-07-13T02:10:24;99828.38;;;19.35;85.41
41706;BME280;27385;51.096;17.190;2023-07-13T02:12:55;99827.97;;;19.29;85.08
41706;BME280;27385;51.096;17.190;2023-07-13T02:15:26;99826.52;;;19.25;84.84
41706;BME280;27385;51.096;17.190;2023-07-13T02:17:57;99819.57;;;19.14;84.74
41706;BME280;27385;51.096;17.190;2023-07-13T02:20:28;99806.83;;;19.08;85.20
41706;BME280;27385;51.096;17.190;2023-07-13T02:22:59;99808.08;;;19.08;85.32
41706;BME280;27385;51.096;17.190;2023-07-13T02:25:30;99806.23;;;19.08;85.59
41706;BME280;27385;51.096;17.190;2023-07-13T02:28:01;99802.69;;;19.05;85.55
41706;BME280;27385;51.096;17.190;2023-07-13T02:30:33;99811.99;;;19.01;85.74
41706;BME280;27385;51.096;17.190;2023-07-13T02:33:04;99815.88;;;18.97;85.93
41706;BME280;27385;51.096;17.190;2023-07-13T02:35:35;99822.20;;;18.93;85.89
41706;BME280;27385;51.096;17.190;2023-07-13T02:38:06;99823.34;;;18.91;86.00
41706;BME280;27385;51.096;17.190;2023-07-13T02:40:38;99821.91;;;18.92;86.20
41706;BME280;27385;51.096;17.190;2023-07-13T02:43:08;99815.17;;;18.92;86.21
41706;BME280;27385;51.096;17.190;2023-07-13T02:45:39;99811.38;;;18.94;86.34
41706;BME280;27385;51.096;17.190;2023-07-13T02:48:14;99808.95;;;18.95;86.41
41706;BME280;27385;51.096;17.190;2023-07-13T02:50:46;99808.85;;;18.94;86.39
41706;BME280;27385;51.096;17.190;2023-07-13T02:53:17;99807.59;;;18.95;86.57
41706;BME280;27385;51.096;17.190;2023-07-13T02:55:48;99811.66;;;18.92;87.07
41706;BME280;27385;51.096;17.190;2023-07-13T02:58:19;99815.61;;;18.88;87.29
41706;BME280;27385;51.096;17.190;2023-07-13T03:00:50;99822.98;;;18.83;86.93
41706;BME280;27385;51.096;17.190;2023-07-13T03:03:21;99827.70;;;18.81;86.86
41706;BME280;27385;51.096;17.190;2023-07-13T03:06:01;99829.70;;;18.79;86.94
41706;BME280;27385;51.096;17.190;2023-07-13T03:08:33;99833.13;;;18.75;86.89
41706;BME280;27385;51.096;17.190;2023-07-13T03:11:06;99831.77;;;18.73;87.02
41706;BME280;27385;51.096;17.190;2023-07-13T03:13:37;99830.70;;;18.72;87.24
41706;BME280;27385;51.096;17.190;2023-07-13T03:16:09;99827.16;;;18.70;87.21
41706;BME280;27385;51.096;17.190;2023-07-13T03:18:40;99833.10;;;18.68;87.43
41706;BME280;27385;51.096;17.190;2023-07-13T03:21:11;99833.28;;;18.65;87.48
41706;BME280;27385;51.096;17.190;2023-07-13T03:23:42;99835.27;;;18.61;87.62
41706;BME280;27385;51.096;17.190;2023-07-13T03:26:15;99833.75;;;18.58;88.12
41706;BME280;27385;51.096;17.190;2023-07-13T03:28:47;99832.00;;;18.56;88.34
41706;BME280;27385;51.096;17.190;2023-07-13T03:31:20;99832.39;;;18.57;88.27
41706;BME280;27385;51.096;17.190;2023-07-13T03:33:51;99828.48;;;18.63;88.27
41706;BME280;27385;51.096;17.190;2023-07-13T03:36:24;99833.17;;;18.68;88.55
41706;BME280;27385;51.096;17.190;2023-07-13T03:38:56;99842.02;;;18.70;89.13
41706;BME280;27385;51.096;17.190;2023-07-13T03:41:27;99843.42;;;18.69;88.92
41706;BME280;27385;51.096;17.190;2023-07-13T03:43:58;99844.65;;;18.72;89.29
41706;BME280;27385;51.096;17.190;2023-07-13T03:46:29;99847.23;;;18.74;89.16
41706;BME280;27385;51.096;17.190;2023-07-13T03:49:01;99845.82;;;18.78;89.30
41706;BME280;27385;51.096;17.190;2023-07-13T03:51:32;99836.90;;;18.81;89.64
41706;BME280;27385;51.096;17.190;2023-07-13T03:54:03;99833.81;;;18.84;89.52
41706;BME280;27385;51.096;17.190;2023-07-13T03:56:34;99835.40;;;18.88;89.32
41706;BME280;27385;51.096;17.190;2023-07-13T03:59:05;99837.16;;;18.93;89.24
41706;BME280;27385;51.096;17.190;2023-07-13T04:01:37;99838.05;;;18.97;89.48
41706;BME280;27385;51.096;17.190;2023-07-13T04:04:08;99839.00;;;19.01;89.68
41706;BME280;27385;51.096;17.190;2023-07-13T04:06:39;99841.98;;;19.04;89.75
41706;BME280;27385;51.096;17.190;2023-07-13T04:09:10;99839.52;;;19.07;89.67
41706;BME280;27385;51.096;17.190;2023-07-13T04:11:41;99844.26;;;19.12;90.12
41706;BME280;27385;51.096;17.190;2023-07-13T04:14:12;99851.64;;;19.16;90.47
41706;BME280;27385;51.096;17.190;2023-07-13T04:16:43;99862.73;;;19.16;90.40
41706;BME280;27385;51.096;17.190;2023-07-13T04:19:15;99863.95;;;19.17;90.48
41706;BME280;27385;51.096;17.190;2023-07-13T04:21:45;99869.27;;;19.18;90.57
41706;BME280;27385;51.096;17.190;2023-07-13T04:24:16;99873.85;;;19.19;90.59
41706;BME280;27385;51.096;17.190;2023-07-13T04:26:48;99876.51;;;19.19;90.90
41706;BME280;27385;51.096;17.190;2023-07-13T04:29:19;99886.36;;;19.20;90.91
41706;BME280;27385;51.096;17.190;2023-07-13T04:31:50;99897.20;;;19.21;91.00
41706;BME280;27385;51.096;17.190;2023-07-13T04:34:21;99910.56;;;19.19;91.41
41706;BME280;27385;51.096;17.190;2023-07-13T04:36:52;99930.36;;;19.15;91.51
41706;BME280;27385;51.096;17.190;2023-07-13T04:39:23;99961.16;;;19.11;91.65
41706;BME280;27385;51.096;17.190;2023-07-13T04:41:54;100028.02;;;19.06;91.99
41706;BME280;27385;51.096;17.190;2023-07-13T04:44:25;100050.46;;;19.00;92.03
41706;BME280;27385;51.096;17.190;2023-07-13T04:46:56;100069.13;;;18.95;90.08
41706;BME280;27385;51.096;17.190;2023-07-13T04:49:26;100077.52;;;18.88;87.88
41706;BME280;27385;51.096;17.190;2023-07-13T04:51:57;100088.34;;;18.79;86.90
41706;BME280;27385;51.096;17.190;2023-07-13T04:54:28;100094.67;;;18.66;87.16
41706;BME280;27385;51.096;17.190;2023-07-13T04:56:59;100096.71;;;18.46;87.58
41706;BME280;27385;51.096;17.190;2023-07-13T04:59:30;100117.34;;;18.22;87.87
41706;BME280;27385;51.096;17.190;2023-07-13T05:02:01;100145.57;;;17.94;87.79
41706;BME280;27385;51.096;17.190;2023-07-13T05:04:32;100172.91;;;17.69;88.32
41706;BME280;27385;51.096;17.190;2023-07-13T05:07:04;100166.53;;;17.51;88.69
41706;BME280;27385;51.096;17.190;2023-07-13T05:09:36;100151.43;;;17.35;89.13
41706;BME280;27385;51.096;17.190;2023-07-13T05:12:08;100130.67;;;17.16;89.32
41706;BME280;27385;51.096;17.190;2023-07-13T05:14:39;100117.58;;;16.96;89.70
41706;BME280;27385;51.096;17.190;2023-07-13T05:17:10;100117.07;;;16.78;90.28
41706;BME280;27385;51.096;17.190;2023-07-13T05:19:41;100118.65;;;16.61;90.44
41706;BME280;27385;51.096;17.190;2023-07-13T05:22:12;100121.23;;;16.45;90.97
41706;BME280;27385;51.096;17.190;2023-07-13T05:24:43;100113.02;;;16.33;91.57
41706;BME280;27385;51.096;17.190;2023-07-13T05:27:14;100105.66;;;16.22;92.12
41706;BME280;27385;51.096;17.190;2023-07-13T05:29:45;100102.02;;;16.14;92.57
41706;BME280;27385;51.096;17.190;2023-07-13T05:32:16;100112.63;;;16.09;92.78
41706;BME280;27385;51.096;17.190;2023-07-13T05:34:48;100107.23;;;16.07;93.06
41706;BME280;27385;51.096;17.190;2023-07-13T05:37:18;100092.28;;;16.07;93.16
41706;BME280;27385;51.096;17.190;2023-07-13T05:39:50;100078.55;;;16.08;93.18
41706;BME280;27385;51.096;17.190;2023-07-13T05:42:20;100065.61;;;16.08;93.15
41706;BME280;27385;51.096;17.190;2023-07-13T05:44:56;100060.83;;;16.08;93.28
41706;BME280;27385;51.096;17.190;2023-07-13T05:47:27;100054.38;;;16.11;93.35
41706;BME280;27385;51.096;17.190;2023-07-13T05:49:58;100047.88;;;16.17;93.72
41706;BME280;27385;51.096;17.190;2023-07-13T05:52:29;100041.03;;;16.21;93.49
41706;BME280;27385;51.096;17.190;2023-07-13T05:55:00;100029.15;;;16.29;93.63
41706;BME280;27385;51.096;17.190;2023-07-13T05:57:33;100019.52;;;16.37;93.57
41706;BME280;27385;51.096;17.190;2023-07-13T06:00:05;100020.85;;;16.42;93.25
41706;BME280;27385;51.096;17.190;2023-07-13T06:02:36;100011.69;;;16.48;93.39
41706;BME280;27385;51.096;17.190;2023-07-13T06:05:09;99996.34;;;16.53;93.25
41706;BME280;27385;51.096;17.190;2023-07-13T06:07:40;99997.92;;;16.54;93.14
41706;BME280;27385;51.096;17.190;2023-07-13T06:10:12;99999.66;;;16.55;93.11
41706;BME280;27385;51.096;17.190;2023-07-13T06:12:42;99989.90;;;16.52;93.08
41706;BME280;27385;51.096;17.190;2023-07-13T06:15:14;99967.95;;;16.52;93.46
41706;BME280;27385;51.096;17.190;2023-07-13T06:17:45;99971.98;;;16.56;93.69
41706;BME280;27385;51.096;17.190;2023-07-13T06:20:16;99980.31;;;16.59;93.74
41706;BME280;27385;51.096;17.190;2023-07-13T06:25:28;100003.33;;;16.63;93.95
41706;BME280;27385;51.096;17.190;2023-07-13T06:27:59;100008.65;;;16.64;94.27
41706;BME280;27385;51.096;17.190;2023-07-13T06:30:30;100005.38;;;16.68;94.64
41706;BME280;27385;51.096;17.190;2023-07-13T06:33:04;100002.83;;;16.72;94.27
41706;BME280;27385;51.096;17.190;2023-07-13T06:35:35;100008.50;;;16.79;94.49
41706;BME280;27385;51.096;17.190;2023-07-13T06:38:06;100021.65;;;16.87;94.53
41706;BME280;27385;51.096;17.190;2023-07-13T06:40:37;100033.12;;;16.92;94.58
41706;BME280;27385;51.096;17.190;2023-07-13T06:43:08;100040.42;;;17.00;94.80
41706;BME280;27385;51.096;17.190;2023-07-13T06:45:42;100038.23;;;17.10;94.84
41706;BME280;27385;51.096;17.190;2023-07-13T06:48:15;100045.37;;;17.18;94.85
41706;BME280;27385;51.096;17.190;2023-07-13T06:50:47;100052.95;;;17.28;94.87
41706;BME280;27385;51.096;17.190;2023-07-13T06:53:20;100060.30;;;17.37;95.21
41706;BME280;27385;51.096;17.190;2023-07-13T06:55:51;100067.13;;;17.41;94.41
41706;BME280;27385;51.096;17.190;2023-07-13T06:58:22;100078.60;;;17.42;94.66
41706;BME280;27385;51.096;17.190;2023-07-13T07:00:54;100086.93;;;17.45;94.41
41706;BME280;27385;51.096;17.190;2023-07-13T07:03:24;100094.02;;;17.45;94.54
41706;BME280;27385;51.096;17.190;2023-07-13T07:05:59;100109.42;;;17.43;94.27
41706;BME280;27385;51.096;17.190;2023-07-13T07:08:30;100140.61;;;17.40;94.45
41706;BME280;27385;51.096;17.190;2023-07-13T07:11:01;100157.14;;;17.39;94.72
41706;BME280;27385;51.096;17.190;2023-07-13T07:13:32;100172.85;;;17.37;94.87
41706;BME280;27385;51.096;17.190;2023-07-13T07:16:03;100181.29;;;17.35;94.80
41706;BME280;27385;51.096;17.190;2023-07-13T07:18:35;100190.45;;;17.31;94.99
41706;BME280;27385;51.096;17.190;2023-07-13T07:21:06;100196.63;;;17.29;95.09
41706;BME280;27385;51.096;17.190;2023-07-13T07:23:36;100197.16;;;17.26;95.24
41706;BME280;27385;51.096;17.190;2023-07-13T07:26:08;100204.02;;;17.23;95.19
41706;BME280;27385;51.096;17.190;2023-07-13T07:28:39;100198.86;;;17.21;95.37
41706;BME280;27385;51.096;17.190;2023-07-13T07:31:10;100196.59;;;17.22;95.48
41706;BME280;27385;51.096;17.190;2023-07-13T07:33:41;100194.11;;;17.24;95.71
41706;BME280;27385;51.096;17.190;2023-07-13T07:36:12;100188.92;;;17.24;95.60
41706;BME280;27385;51.096;17.190;2023-07-13T07:38:43;100171.23;;;17.25;95.63
41706;BME280;27385;51.096;17.190;2023-07-13T07:41:14;100151.61;;;17.27;96.03
41706;BME280;27385;51.096;17.190;2023-07-13T07:43:45;100131.12;;;17.34;96.53
41706;BME280;27385;51.096;17.190;2023-07-13T07:46:16;100109.46;;;17.40;96.28
41706;BME280;27385;51.096;17.190;2023-07-13T07:48:47;100081.60;;;17.45;96.17
41706;BME280;27385;51.096;17.190;2023-07-13T07:51:18;100054.36;;;17.50;95.90
41706;BME280;27385;51.096;17.190;2023-07-13T07:53:48;100022.46;;;17.53;95.93
41706;BME280;27385;51.096;17.190;2023-07-13T07:56:19;100009.05;;;17.54;95.81
41706;BME280;27385;51.096;17.190;2023-07-13T07:58:50;100013.39;;;17.57;95.78
41706;BME280;27385;51.096;17.190;2023-07-13T08:01:21;100020.11;;;17.60;95.82
41706;BME280;27385;51.096;17.190;2023-07-13T08:03:52;100037.43;;;17.62;96.20
41706;BME280;27385;51.096;17.190;2023-07-13T08:06:23;100034.45;;;17.63;96.27
41706;BME280;27385;51.096;17.190;2023-07-13T08:08:54;100026.66;;;17.65;96.64
41706;BME280;27385;51.096;17.190;2023-07-13T08:11:25;100023.09;;;17.68;96.85
41706;BME280;27385;51.096;17.190;2023-07-13T08:13:56;100020.87;;;17.73;97.40
41706;BME280;27385;51.096;17.190;2023-07-13T08:16:27;100036.45;;;17.78;97.94
41706;BME280;27385;51.096;17.190;2023-07-13T08:18:59;100049.57;;;17.88;98.27
41706;BME280;27385;51.096;17.190;2023-07-13T08:21:30;100064.04;;;17.96;98.05
41706;BME280;27385;51.096;17.190;2023-07-13T08:24:01;100069.68;;;18.07;98.13
41706;BME280;27385;51.096;17.190;2023-07-13T08:26:32;100085.48;;;18.17;97.22
41706;BME280;27385;51.096;17.190;2023-07-13T08:29:03;100086.95;;;18.25;96.44
41706;BME280;27385;51.096;17.190;2023-07-13T08:31:34;100096.44;;;18.33;96.10
41706;BME280;27385;51.096;17.190;2023-07-13T08:34:05;100107.85;;;18.39;95.76
41706;BME280;27385;51.096;17.190;2023-07-13T08:36:36;100115.96;;;18.45;95.51
41706;BME280;27385;51.096;17.190;2023-07-13T08:39:08;100129.09;;;18.53;96.43
41706;BME280;27385;51.096;17.190;2023-07-13T08:41:39;100134.60;;;18.60;96.00
41706;BME280;27385;51.096;17.190;2023-07-13T08:44:22;100139.66;;;18.65;96.22
41706;BME280;27385;51.096;17.190;2023-07-13T08:46:59;100151.61;;;18.71;96.22
41706;BME280;27385;51.096;17.190;2023-07-13T08:49:30;100155.95;;;18.75;96.01
41706;BME280;27385;51.096;17.190;2023-07-13T08:52:06;100166.81;;;18.82;96.57
41706;BME280;27385;51.096;17.190;2023-07-13T08:54:45;100166.52;;;18.90;96.32
41706;BME280;27385;51.096;17.190;2023-07-13T08:57:21;100171.65;;;18.94;96.01
41706;BME280;27385;51.096;17.190;2023-07-13T08:59:54;100175.50;;;18.95;95.37
41706;BME280;27385;51.096;17.190;2023-07-13T09:02:28;100175.40;;;19.01;96.00
41706;BME280;27385;51.096;17.190;2023-07-13T09:05:13;100178.70;;;19.09;96.04
41706;BME280;27385;51.096;17.190;2023-07-13T09:07:58;100185.31;;;19.18;96.17
41706;BME280;27385;51.096;17.190;2023-07-13T09:10:35;100184.05;;;19.22;94.93
41706;BME280;27385;51.096;17.190;2023-07-13T09:13:19;100181.36;;;19.22;94.66
41706;BME280;27385;51.096;17.190;2023-07-13T09:15:53;100183.39;;;19.27;95.19
41706;BME280;27385;51.096;17.190;2023-07-13T09:18:27;100185.73;;;19.33;95.19
41706;BME280;27385;51.096;17.190;2023-07-13T09:21:02;100183.77;;;19.37;95.08
41706;BME280;27385;51.096;17.190;2023-07-13T09:23:36;100179.06;;;19.42;94.87
41706;BME280;27385;51.096;17.190;2023-07-13T09:26:12;100174.83;;;19.48;95.30
41706;BME280;27385;51.096;17.190;2023-07-13T09:28:45;100175.23;;;19.53;94.67
41706;BME280;27385;51.096;17.190;2023-07-13T09:31:21;100177.71;;;19.56;94.57
41706;BME280;27385;51.096;17.190;2023-07-13T09:33:55;100176.33;;;19.62;94.53
41706;BME280;27385;51.096;17.190;2023-07-13T09:36:29;100176.14;;;19.68;94.47
41706;BME280;27385;51.096;17.190;2023-07-13T09:39:05;100174.54;;;19.74;94.48
41706;BME280;27385;51.096;17.190;2023-07-13T09:41:46;100177.75;;;19.83;94.24
41706;BME280;27385;51.096;17.190;2023-07-13T09:44:28;100174.92;;;19.88;93.98
41706;BME280;27385;51.096;17.190;2023-07-13T09:47:01;100174.48;;;19.98;94.51
41706;BME280;27385;51.096;17.190;2023-07-13T09:49:35;100173.11;;;20.06;93.46
41706;BME280;27385;51.096;17.190;2023-07-13T09:52:11;100171.54;;;20.10;93.01
41706;BME280;27385;51.096;17.190;2023-07-13T09:54:48;100173.16;;;20.16;92.85
41706;BME280;27385;51.096;17.190;2023-07-13T09:57:22;100171.33;;;20.27;93.41
41706;BME280;27385;51.096;17.190;2023-07-13T09:59:55;100163.35;;;20.40;93.84
41706;BME280;27385;51.096;17.190;2023-07-13T10:02:31;100156.98;;;20.55;93.14
41706;BME280;27385;51.096;17.190;2023-07-13T10:05:04;100149.70;;;20.62;91.72
41706;BME280;27385;51.096;17.190;2023-07-13T10:07:43;100142.43;;;20.67;92.06
41706;BME280;27385;51.096;17.190;2023-07-13T10:10:18;100140.57;;;20.77;92.25
41706;BME280;27385;51.096;17.190;2023-07-13T10:12:50;100144.57;;;20.88;92.80
41706;BME280;27385;51.096;17.190;2023-07-13T10:15:24;100151.41;;;20.98;91.72
41706;BME280;27385;51.096;17.190;2023-07-13T10:17:56;100150.00;;;21.08;90.96
41706;BME280;27385;51.096;17.190;2023-07-13T10:20:28;100149.83;;;21.13;90.10
41706;BME280;27385;51.096;17.190;2023-07-13T10:23:04;100153.66;;;21.22;90.96
41706;BME280;27385;51.096;17.190;2023-07-13T10:25:39;100157.20;;;21.35;91.13
41706;BME280;27385;51.096;17.190;2023-07-13T10:28:29;100159.39;;;21.49;90.18
41706;BME280;27385;51.096;17.190;2023-07-13T10:31:02;100167.29;;;21.56;88.80
41706;BME280;27385;51.096;17.190;2023-07-13T10:33:36;100169.94;;;21.61;88.52
41706;BME280;27385;51.096;17.190;2023-07-13T10:36:33;100172.27;;;21.66;87.57
41706;BME280;27385;51.096;17.190;2023-07-13T10:39:06;100169.62;;;21.66;86.24
41706;BME280;27385;51.096;17.190;2023-07-13T10:41:39;100176.63;;;21.66;86.33
41706;BME280;27385;51.096;17.190;2023-07-13T10:44:19;100175.70;;;21.73;86.36
41706;BME280;27385;51.096;17.190;2023-07-13T10:46:57;100178.48;;;21.81;85.80
41706;BME280;27385;51.096;17.190;2023-07-13T10:49:31;100177.75;;;21.89;85.62
41706;BME280;27385;51.096;17.190;2023-07-13T10:52:03;100180.62;;;21.99;84.56
41706;BME280;27385;51.096;17.190;2023-07-13T10:54:34;100180.48;;;22.11;83.64
41706;BME280;27385;51.096;17.190;2023-07-13T10:57:22;100170.60;;;22.20;82.55
41706;BME280;27385;51.096;17.190;2023-07-13T11:03:10;100173.19;;;22.39;81.23
41706;BME280;27385;51.096;17.190;2023-07-13T11:05:44;100174.23;;;22.44;80.55
41706;BME280;27385;51.096;17.190;2023-07-13T11:08:31;100167.65;;;22.49;79.54
41706;BME280;27385;51.096;17.190;2023-07-13T11:11:03;100161.24;;;22.52;78.96
41706;BME280;27385;51.096;17.190;2023-07-13T11:13:56;100162.23;;;22.58;79.58
41706;BME280;27385;51.096;17.190;2023-07-13T11:16:43;100166.16;;;22.75;79.05
41706;BME280;27385;51.096;17.190;2023-07-13T11:19:37;100158.48;;;22.88;77.92
41706;BME280;27385;51.096;17.190;2023-07-13T11:22:15;100159.29;;;22.96;77.44
41706;BME280;27385;51.096;17.190;2023-07-13T11:25:01;100162.19;;;23.06;77.30
41706;BME280;27385;51.096;17.190;2023-07-13T11:27:43;100167.00;;;23.13;76.06
41706;BME280;27385;51.096;17.190;2023-07-13T11:30:35;100171.11;;;23.16;75.47
41706;BME280;27385;51.096;17.190;2023-07-13T11:33:18;100168.46;;;23.21;74.50
41706;BME280;27385;51.096;17.190;2023-07-13T11:36:00;100168.23;;;23.26;73.84
41706;BME280;27385;51.096;17.190;2023-07-13T11:38:40;100172.42;;;23.29;72.53
41706;BME280;27385;51.096;17.190;2023-07-13T11:41:17;100166.85;;;23.32;72.80
41706;BME280;27385;51.096;17.190;2023-07-13T11:43:50;100166.79;;;23.38;72.28
41706;BME280;27385;51.096;17.190;2023-07-13T11:46:25;100165.68;;;23.41;71.64
41706;BME280;27385;51.096;17.190;2023-07-13T11:48:56;100162.23;;;23.44;71.28
41706;BME280;27385;51.096;17.190;2023-07-13T11:51:29;100162.79;;;23.48;71.64
41706;BME280;27385;51.096;17.190;2023-07-13T11:54:05;100166.54;;;23.58;70.62
41706;BME280;27385;51.096;17.190;2023-07-13T11:56:38;100163.00;;;23.64;69.26
41706;BME280;27385;51.096;17.190;2023-07-13T11:59:12;100166.78;;;23.73;69.85
41706;BME280;27385;51.096;17.190;2023-07-13T12:01:46;100173.88;;;23.79;66.82
41706;BME280;27385;51.096;17.190;2023-07-13T12:04:24;100171.70;;;23.69;66.14
41706;BME280;27385;51.096;17.190;2023-07-13T12:06:58;100171.02;;;23.64;66.06
41706;BME280;27385;51.096;17.190;2023-07-13T12:09:35;100173.67;;;23.62;65.05
41706;BME280;27385;51.096;17.190;2023-07-13T12:12:12;100179.11;;;23.61;65.00
41706;BME280;27385;51.096;17.190;2023-07-13T12:14:43;100175.51;;;23.64;64.87
41706;BME280;27385;51.096;17.190;2023-07-13T12:17:19;100177.32;;;23.70;65.36
41706;BME280;27385;51.096;17.190;2023-07-13T12:19:52;100171.88;;;23.74;64.84
41706;BME280;27385;51.096;17.190;2023-07-13T12:22:23;100170.83;;;23.78;65.04
41706;BME280;27385;51.096;17.190;2023-07-13T12:24:54;100175.39;;;23.80;64.07
41706;BME280;27385;51.096;17.190;2023-07-13T12:27:27;100173.31;;;23.79;64.18
41706;BME280;27385;51.096;17.190;2023-07-13T12:30:02;100174.15;;;23.72;63.37
41706;BME280;27385;51.096;17.190;2023-07-13T12:32:35;100177.23;;;23.70;64.05
41706;BME280;27385;51.096;17.190;2023-07-13T12:35:16;100182.70;;;23.75;63.99
41706;BME280;27385;51.096;17.190;2023-07-13T12:37:50;100179.58;;;23.80;63.92
41706;BME280;27385;51.096;17.190;2023-07-13T12:40:28;100174.75;;;23.83;63.47
41706;BME280;27385;51.096;17.190;2023-07-13T12:43:02;100170.85;;;23.89;63.05
41706;BME280;27385;51.096;17.190;2023-07-13T12:45:36;100168.48;;;23.92;62.90
41706;BME280;27385;51.096;17.190;2023-07-13T12:48:14;100167.68;;;23.96;62.75
41706;BME280;27385;51.096;17.190;2023-07-13T12:50:48;100171.58;;;24.00;62.29
41706;BME280;27385;51.096;17.190;2023-07-13T12:53:23;100171.70;;;24.04;62.52
41706;BME280;27385;51.096;17.190;2023-07-13T12:55:56;100164.09;;;24.10;62.60
41706;BME280;27385;51.096;17.190;2023-07-13T12:58:31;100164.60;;;24.16;61.42
41706;BME280;27385;51.096;17.190;2023-07-13T13:01:03;100161.23;;;24.19;60.02
41706;BME280;27385;51.096;17.190;2023-07-13T13:03:37;100160.48;;;24.28;59.51
41706;BME280;27385;51.096;17.190;2023-07-13T13:06:23;100162.59;;;24.36;59.05
41706;BME280;27385;51.096;17.190;2023-07-13T13:08:56;100157.77;;;24.38;59.05
41706;BME280;27385;51.096;17.190;2023-07-13T13:11:30;100158.24;;;24.37;59.17
41706;BME280;27385;51.096;17.190;2023-07-13T13:14:02;100157.10;;;24.37;58.72
41706;BME280;27385;51.096;17.190;2023-07-13T13:16:35;100157.78;;;24.38;58.56
41706;BME280;27385;51.096;17.190;2023-07-13T13:19:13;100157.12;;;24.41;56.96